Lubbock, TX (79401)

2:59 AM CDT on September 03, 2015 (GMT -0500)
Carlisle Park | | Change Station
CLOSE
Current Station
Personal Weather Station
Location: Lubbock, TX
Elevation: 3215 ft
Nearby Weather Stations

Elev 3215 ft 33.57 °N, 101.87 °W | Updated 14 seconds ago

Mostly Cloudy
Mostly Cloudy
75.6 °F
Feels Like 78 °F
N
2.2
Wind Variable Wind from SE
Gusts 4.5 mph

Today
High -- | Low -- °F
--% Chance of Precip.
Yesterday
High -- | Low -- °F
Precip. -- in
7:22 AM 8:10 PM
Waning Gibbous, 72% visible
Pressure 29.84 in
Visibility 10.0 miles
Clouds Mostly Cloudy 28000 ft
Heat Index 78 °F
Dew Point 53 °F
Humidity 46%
Rainfall 0.00 in
Snow Depth Not available.
UV 0 out of 12
Pollen 9.00 out of 12
Air Quality Not available.
Flu Activity Not available.
METAR KLBB 030753Z 19009KT 10SM BKN280 23/12 A3001 RMK AO2 SLP104 T02280117
Pressure 29.84 in
Visibility 10.0 miles
Clouds Mostly Cloudy 28000 ft
Heat Index 78 °F
Dew Point 53 °F
Humidity 46%
Rainfall 0.00 in
Snow Depth Not available.
UV 0 out of 12
Pollen 9.00 out of 12
Air Quality Not available.
Flu Activity Not available.
METAR KLBB 030753Z 19009KT 10SM BKN280 23/12 A3001 RMK AO2 SLP104 T02280117

10-Day Weather Forecast

×

Almanac

Astronomy

Sep. 03, 2015 Rise Set
Actual Time
Civil Twilight
Nautical Twilight
Astronomical Twilight
Moon
Length of Visible Light
Length of Day
Tomorrow will be .
, % of the Moon is Illuminated

Today's Extremes

State Highs State Lows

Community

WunderPhotos

Upload Photos

1,851,919 photos uploaded!

WunderBlogs® & News

Nearby

Air Quality

  Air Quality AQ Index Pollutant
Not available.

Snow Depth

Station Depth Elevation

Earthquake Activity

City Distance Mag. Time & Date
Minimum magnitude displayed is 2.5.

Coastal Water Temperatures

Place Temperature

Stations

Nearby Weather Stations

Station Location Temp. Windchill Dew Point Humidity Wind Precip. Elev Updated Type